SWA2161 KBWI-KORF
Flight info
| Callsign | SWA2161 |
|---|---|
| Flight time | 0h 42m |
| Altitude | 16000 |
| Route | CONLE5 COLIN T291 FAGED/N0367F150 CORET STEIN/N0361F140 |
| Aircraft | B38M/M-SDE1FGHILORVWXY/HB1 |
Departure
| Time | 2026-04-25 19:37 |
|---|---|
| Airport | Baltimore/Washington International Thurgood Marshall Airport (KBWI) |
Arrival
| Time | 2026-04-25 20:19 |
|---|---|
| Airport | Norfolk International Airport (KORF) |
| Time | Latitude | Longitude | Altitude | Speed | Heading |
|---|---|---|---|---|---|
| 2026-04-25 19:06 | 39.17709 | -76.66734 | 159 ft | 0 kts | 51° |
| 2026-04-25 19:24 | 39.17697 | -76.66757 | 159 ft | 2 kts | 62° |
| 2026-04-25 19:25 | 39.17692 | -76.66797 | 159 ft | 2 kts | 115° |
| 2026-04-25 19:25 | 39.17701 | -76.66814 | 159 ft | 2 kts | 139° |
| 2026-04-25 19:25 | 39.17708 | -76.66821 | 159 ft | 0 kts | 143° |
| 2026-04-25 19:30 | 39.17693 | -76.66807 | 159 ft | 7 kts | 143° |
| 2026-04-25 19:31 | 39.17660 | -76.66781 | 159 ft | 5 kts | 155° |
| 2026-04-25 19:31 | 39.17625 | -76.66771 | 159 ft | 6 kts | 174° |
| 2026-04-25 19:31 | 39.17573 | -76.66776 | 159 ft | 9 kts | 193° |
| 2026-04-25 19:31 | 39.17523 | -76.66810 | 160 ft | 6 kts | 215° |
| 2026-04-25 19:32 | 39.17500 | -76.66830 | 160 ft | 4 kts | 216° |
| 2026-04-25 19:32 | 39.17470 | -76.66884 | 160 ft | 12 kts | 252° |
| 2026-04-25 19:32 | 39.17485 | -76.67004 | 162 ft | 13 kts | 295° |
| 2026-04-25 19:32 | 39.17513 | -76.67058 | 162 ft | 9 kts | 307° |
| 2026-04-25 19:33 | 39.17564 | -76.67126 | 162 ft | 12 kts | 321° |
| 2026-04-25 19:33 | 39.17672 | -76.67225 | 160 ft | 27 kts | 326° |
| 2026-04-25 19:33 | 39.17819 | -76.67358 | 156 ft | 24 kts | 325° |
| 2026-04-25 19:33 | 39.17941 | -76.67473 | 158 ft | 18 kts | 325° |
| 2026-04-25 19:34 | 39.18025 | -76.67550 | 159 ft | 12 kts | 324° |
| 2026-04-25 19:34 | 39.18094 | -76.67613 | 160 ft | 14 kts | 324° |
| 2026-04-25 19:34 | 39.18171 | -76.67685 | 163 ft | 11 kts | 323° |
| 2026-04-25 19:34 | 39.18242 | -76.67754 | 164 ft | 17 kts | 323° |
| 2026-04-25 19:35 | 39.18336 | -76.67842 | 163 ft | 15 kts | 325° |
| 2026-04-25 19:35 | 39.18405 | -76.67904 | 164 ft | 10 kts | 325° |
| 2026-04-25 19:35 | 39.18460 | -76.67954 | 162 ft | 10 kts | 324° |
| 2026-04-25 19:35 | 39.18522 | -76.68013 | 161 ft | 16 kts | 320° |
| 2026-04-25 19:36 | 39.18561 | -76.68130 | 161 ft | 11 kts | 240° |
| 2026-04-25 19:36 | 39.18511 | -76.68157 | 161 ft | 6 kts | 169° |
| 2026-04-25 19:36 | 39.18428 | -76.68095 | 161 ft | 30 kts | 144° |
| 2026-04-25 19:36 | 39.18081 | -76.67775 | 165 ft | 93 kts | 144° |
| 2026-04-25 19:37 | 39.17399 | -76.67141 | 166 ft | 145 kts | 144° |
| 2026-04-25 19:37 | 39.16533 | -76.66332 | 270 ft | 169 kts | 144° |
| 2026-04-25 19:37 | 39.15555 | -76.65441 | 787 ft | 172 kts | 142° |
| 2026-04-25 19:37 | 39.14582 | -76.64610 | 1407 ft | 167 kts | 142° |
| 2026-04-25 19:38 | 39.13574 | -76.63655 | 1765 ft | 183 kts | 139° |
| 2026-04-25 19:38 | 39.12538 | -76.62650 | 2422 ft | 190 kts | 140° |
| 2026-04-25 19:38 | 39.11445 | -76.61630 | 2989 ft | 200 kts | 144° |
| 2026-04-25 19:38 | 39.10382 | -76.60412 | 3488 ft | 215 kts | 135° |
| 2026-04-25 19:39 | 39.09298 | -76.58937 | 3905 ft | 235 kts | 136° |
| 2026-04-25 19:39 | 39.08119 | -76.57370 | 4432 ft | 250 kts | 137° |
| 2026-04-25 19:39 | 39.06895 | -76.55740 | 5106 ft | 258 kts | 137° |
| 2026-04-25 19:39 | 39.05636 | -76.54057 | 5735 ft | 268 kts | 137° |
| 2026-04-25 19:40 | 39.04321 | -76.52300 | 6412 ft | 276 kts | 136° |
| 2026-04-25 19:40 | 39.02975 | -76.50502 | 7045 ft | 283 kts | 137° |
| 2026-04-25 19:40 | 39.01592 | -76.48659 | 7754 ft | 288 kts | 137° |
| 2026-04-25 19:40 | 39.00062 | -76.46976 | 8467 ft | 286 kts | 156° |
| 2026-04-25 19:41 | 38.98202 | -76.46214 | 9189 ft | 281 kts | 180° |
| 2026-04-25 19:41 | 38.96284 | -76.46452 | 9929 ft | 276 kts | 199° |
| 2026-04-25 19:41 | 38.94449 | -76.47121 | 10505 ft | 282 kts | 200° |
| 2026-04-25 19:41 | 38.93804 | -76.47367 | 10659 ft | 286 kts | 200° |
| 2026-04-25 19:42 | 38.90492 | -76.48620 | 11287 ft | 311 kts | 199° |
| 2026-04-25 19:42 | 38.88383 | -76.49393 | 11764 ft | 321 kts | 199° |
| 2026-04-25 19:42 | 38.86203 | -76.50195 | 12328 ft | 328 kts | 199° |
| 2026-04-25 19:42 | 38.84022 | -76.51065 | 12972 ft | 331 kts | 204° |
| 2026-04-25 19:43 | 38.81861 | -76.52157 | 13614 ft | 335 kts | 204° |
| 2026-04-25 19:43 | 38.79668 | -76.53230 | 14193 ft | 339 kts | 204° |
| 2026-04-25 19:43 | 38.77451 | -76.54306 | 14759 ft | 343 kts | 204° |
| 2026-04-25 19:43 | 38.75200 | -76.55414 | 15329 ft | 348 kts | 204° |
| 2026-04-25 19:44 | 38.72933 | -76.56536 | 15835 ft | 354 kts | 204° |
| 2026-04-25 19:44 | 38.70646 | -76.57660 | 15968 ft | 355 kts | 204° |
| 2026-04-25 19:44 | 38.68328 | -76.58745 | 15968 ft | 355 kts | 201° |
| 2026-04-25 19:44 | 38.65972 | -76.59796 | 15972 ft | 355 kts | 204° |
| 2026-04-25 19:45 | 38.63696 | -76.60914 | 15972 ft | 354 kts | 204° |
| 2026-04-25 19:45 | 38.61385 | -76.62016 | 15944 ft | 355 kts | 203° |
| 2026-04-25 19:45 | 38.59049 | -76.63068 | 15943 ft | 354 kts | 202° |
| 2026-04-25 19:45 | 38.56728 | -76.64121 | 15938 ft | 354 kts | 203° |
| 2026-04-25 19:46 | 38.54412 | -76.65200 | 15936 ft | 354 kts | 203° |
| 2026-04-25 19:46 | 38.52095 | -76.66280 | 15931 ft | 354 kts | 203° |
| 2026-04-25 19:46 | 38.49761 | -76.67352 | 15931 ft | 354 kts | 203° |
| 2026-04-25 19:46 | 38.47453 | -76.68409 | 15930 ft | 353 kts | 203° |
| 2026-04-25 19:47 | 38.45155 | -76.69468 | 15928 ft | 354 kts | 203° |
| 2026-04-25 19:47 | 38.42840 | -76.70534 | 15928 ft | 353 kts | 202° |
| 2026-04-25 19:47 | 38.40475 | -76.71150 | 15942 ft | 360 kts | 186° |
| 2026-04-25 19:47 | 38.37899 | -76.70936 | 15947 ft | 364 kts | 176° |
| 2026-04-25 19:48 | 38.35388 | -76.70516 | 15928 ft | 365 kts | 176° |
| 2026-04-25 19:48 | 38.32870 | -76.70087 | 15933 ft | 365 kts | 176° |
| 2026-04-25 19:48 | 38.30372 | -76.69686 | 15938 ft | 365 kts | 176° |
| 2026-04-25 19:48 | 38.27849 | -76.69290 | 15940 ft | 365 kts | 176° |
| 2026-04-25 19:49 | 38.25342 | -76.68887 | 15940 ft | 365 kts | 176° |
| 2026-04-25 19:49 | 38.24475 | -76.68745 | 15940 ft | 364 kts | 176° |
| 2026-04-25 19:49 | 38.20293 | -76.68068 | 15934 ft | 365 kts | 176° |
| 2026-04-25 19:49 | 38.17771 | -76.67665 | 15932 ft | 364 kts | 176° |
| 2026-04-25 19:50 | 38.12755 | -76.66858 | 15917 ft | 364 kts | 176° |
| 2026-04-25 19:50 | 38.10253 | -76.66478 | 15913 ft | 366 kts | 179° |
| 2026-04-25 19:50 | 38.07708 | -76.66551 | 15924 ft | 363 kts | 186° |
| 2026-04-25 19:51 | 38.05172 | -76.66758 | 15925 ft | 363 kts | 187° |
| 2026-04-25 19:51 | 38.02687 | -76.66957 | 15924 ft | 363 kts | 186° |
| 2026-04-25 19:51 | 38.00161 | -76.67135 | 15925 ft | 363 kts | 186° |
| 2026-04-25 19:51 | 37.97635 | -76.67310 | 15921 ft | 363 kts | 186° |
| 2026-04-25 19:52 | 37.95121 | -76.67495 | 15911 ft | 363 kts | 186° |
| 2026-04-25 19:52 | 37.92588 | -76.67685 | 15911 ft | 363 kts | 186° |
| 2026-04-25 19:52 | 37.90921 | -76.67806 | 15912 ft | 362 kts | 186° |
| 2026-04-25 19:52 | 37.88391 | -76.67858 | 15899 ft | 366 kts | 177° |
| 2026-04-25 19:53 | 37.85120 | -76.66733 | 15903 ft | 373 kts | 157° |
| 2026-04-25 19:53 | 37.82931 | -76.64953 | 15908 ft | 377 kts | 141° |
| 2026-04-25 19:53 | 37.81080 | -76.62574 | 15896 ft | 379 kts | 135° |
| 2026-04-25 19:53 | 37.79289 | -76.60107 | 15896 ft | 379 kts | 135° |
| 2026-04-25 19:54 | 37.78107 | -76.58477 | 15898 ft | 379 kts | 135° |
| 2026-04-25 19:54 | 37.76322 | -76.56033 | 15896 ft | 378 kts | 135° |
| 2026-04-25 19:54 | 37.74536 | -76.53603 | 15897 ft | 378 kts | 135° |
| 2026-04-25 19:54 | 37.73326 | -76.51953 | 15899 ft | 378 kts | 135° |
| 2026-04-25 19:55 | 37.70956 | -76.48714 | 15890 ft | 378 kts | 135° |
| 2026-04-25 19:55 | 37.69174 | -76.46287 | 15874 ft | 377 kts | 135° |
| 2026-04-25 19:55 | 37.67397 | -76.43871 | 15646 ft | 372 kts | 135° |
| 2026-04-25 19:55 | 37.65662 | -76.41511 | 15644 ft | 360 kts | 135° |
| 2026-04-25 19:56 | 37.63980 | -76.39223 | 15631 ft | 351 kts | 135° |
| 2026-04-25 19:56 | 37.62369 | -76.37037 | 15618 ft | 342 kts | 135° |
| 2026-04-25 19:56 | 37.60778 | -76.34879 | 15594 ft | 334 kts | 135° |
| 2026-04-25 19:56 | 37.59214 | -76.32757 | 15572 ft | 327 kts | 135° |
| 2026-04-25 19:57 | 37.57675 | -76.30675 | 15547 ft | 320 kts | 136° |
| 2026-04-25 19:57 | 37.56167 | -76.28654 | 15386 ft | 318 kts | 136° |
| 2026-04-25 19:57 | 37.54632 | -76.26606 | 15016 ft | 325 kts | 136° |
| 2026-04-25 19:57 | 37.53063 | -76.24502 | 14621 ft | 331 kts | 136° |
| 2026-04-25 19:58 | 37.51484 | -76.22381 | 14231 ft | 337 kts | 136° |
| 2026-04-25 19:58 | 37.49855 | -76.20198 | 13869 ft | 341 kts | 136° |
| 2026-04-25 19:58 | 37.48411 | -76.18267 | 13540 ft | 344 kts | 136° |
| 2026-04-25 19:58 | 37.46767 | -76.16069 | 13163 ft | 345 kts | 136° |
| 2026-04-25 19:59 | 37.45110 | -76.13853 | 12792 ft | 346 kts | 136° |
| 2026-04-25 19:59 | 37.43461 | -76.11650 | 12450 ft | 346 kts | 136° |
| 2026-04-25 19:59 | 37.41812 | -76.09449 | 12104 ft | 345 kts | 136° |
| 2026-04-25 19:59 | 37.40164 | -76.07251 | 11789 ft | 345 kts | 136° |
| 2026-04-25 20:00 | 37.38523 | -76.05064 | 11467 ft | 342 kts | 136° |
| 2026-04-25 20:00 | 37.37445 | -76.03627 | 11294 ft | 338 kts | 136° |
| 2026-04-25 20:00 | 37.35241 | -76.00912 | 11082 ft | 321 kts | 149° |
| 2026-04-25 20:00 | 37.33372 | -75.99714 | 10989 ft | 306 kts | 166° |
| 2026-04-25 20:01 | 37.29427 | -75.98822 | 10579 ft | 292 kts | 174° |
| 2026-04-25 20:01 | 37.27432 | -75.98438 | 10344 ft | 288 kts | 174° |
| 2026-04-25 20:01 | 37.25469 | -75.98373 | 10096 ft | 279 kts | 191° |
| 2026-04-25 20:02 | 37.23531 | -75.98245 | 9836 ft | 282 kts | 171° |
| 2026-04-25 20:02 | 37.21621 | -75.98210 | 9574 ft | 272 kts | 201° |
| 2026-04-25 20:02 | 37.20086 | -75.99487 | 9318 ft | 264 kts | 232° |
| 2026-04-25 20:02 | 37.19013 | -76.01340 | 9009 ft | 263 kts | 236° |
| 2026-04-25 20:03 | 37.17939 | -76.03167 | 8692 ft | 263 kts | 232° |
| 2026-04-25 20:03 | 37.16687 | -76.04876 | 8410 ft | 262 kts | 224° |
| 2026-04-25 20:03 | 37.15273 | -76.06263 | 8232 ft | 253 kts | 214° |
| 2026-04-25 20:03 | 37.13793 | -76.07262 | 8035 ft | 231 kts | 208° |
| 2026-04-25 20:04 | 37.12429 | -76.08120 | 7779 ft | 215 kts | 211° |
| 2026-04-25 20:04 | 37.11158 | -76.09001 | 7545 ft | 202 kts | 212° |
| 2026-04-25 20:04 | 37.09964 | -76.09853 | 7294 ft | 194 kts | 212° |
| 2026-04-25 20:04 | 37.08800 | -76.10671 | 6997 ft | 190 kts | 212° |
| 2026-04-25 20:05 | 37.07656 | -76.11469 | 6661 ft | 187 kts | 212° |
| 2026-04-25 20:05 | 37.06535 | -76.12250 | 6347 ft | 186 kts | 212° |
| 2026-04-25 20:05 | 37.05408 | -76.13037 | 6008 ft | 184 kts | 212° |
| 2026-04-25 20:05 | 37.04291 | -76.13817 | 5706 ft | 179 kts | 212° |
| 2026-04-25 20:06 | 37.03226 | -76.14559 | 5410 ft | 174 kts | 212° |
| 2026-04-25 20:06 | 37.02179 | -76.15289 | 5108 ft | 172 kts | 212° |
| 2026-04-25 20:06 | 37.01125 | -76.16025 | 4700 ft | 173 kts | 211° |
| 2026-04-25 20:06 | 37.00081 | -76.16752 | 4314 ft | 170 kts | 211° |
| 2026-04-25 20:07 | 36.99054 | -76.17467 | 3915 ft | 168 kts | 211° |
| 2026-04-25 20:07 | 36.98044 | -76.18171 | 3537 ft | 168 kts | 211° |
| 2026-04-25 20:07 | 36.97022 | -76.18883 | 3164 ft | 168 kts | 210° |
| 2026-04-25 20:07 | 36.95984 | -76.19604 | 2784 ft | 169 kts | 210° |
| 2026-04-25 20:08 | 36.94953 | -76.20322 | 2411 ft | 169 kts | 210° |
| 2026-04-25 20:08 | 36.93930 | -76.21035 | 2111 ft | 168 kts | 208° |
| 2026-04-25 20:08 | 36.92900 | -76.21749 | 2102 ft | 173 kts | 208° |
| 2026-04-25 20:08 | 36.91867 | -76.22467 | 2109 ft | 173 kts | 208° |
| 2026-04-25 20:09 | 36.90757 | -76.22830 | 2110 ft | 170 kts | 167° |
| 2026-04-25 20:09 | 36.89892 | -76.22011 | 2100 ft | 153 kts | 119° |
| 2026-04-25 20:09 | 36.89724 | -76.20624 | 2112 ft | 175 kts | 84° |
| 2026-04-25 20:09 | 36.90122 | -76.19170 | 2111 ft | 178 kts | 72° |
| 2026-04-25 20:10 | 36.90570 | -76.17719 | 2113 ft | 179 kts | 70° |
| 2026-04-25 20:10 | 36.91038 | -76.16230 | 2096 ft | 180 kts | 70° |
| 2026-04-25 20:10 | 36.91507 | -76.14765 | 2114 ft | 188 kts | 70° |
| 2026-04-25 20:10 | 36.91985 | -76.13303 | 2104 ft | 184 kts | 69° |
| 2026-04-25 20:11 | 36.92481 | -76.11811 | 2092 ft | 180 kts | 70° |
| 2026-04-25 20:11 | 36.92986 | -76.10331 | 2099 ft | 182 kts | 70° |
| 2026-04-25 20:11 | 36.92951 | -76.08846 | 2103 ft | 174 kts | 125° |
| 2026-04-25 20:11 | 36.92023 | -76.08080 | 2121 ft | 166 kts | 178° |
| 2026-04-25 20:12 | 36.90867 | -76.08140 | 2106 ft | 164 kts | 195° |
| 2026-04-25 20:12 | 36.89860 | -76.08768 | 2090 ft | 164 kts | 220° |
| 2026-04-25 20:12 | 36.89213 | -76.09918 | 2094 ft | 155 kts | 244° |
| 2026-04-25 20:12 | 36.88882 | -76.10668 | 2091 ft | 141 kts | 234° |
| 2026-04-25 20:13 | 36.88137 | -76.11994 | 2097 ft | 137 kts | 232° |
| 2026-04-25 20:13 | 36.87549 | -76.12968 | 2096 ft | 141 kts | 231° |
| 2026-04-25 20:13 | 36.86947 | -76.13951 | 2093 ft | 138 kts | 231° |
| 2026-04-25 20:13 | 36.86356 | -76.14911 | 2104 ft | 150 kts | 229° |
| 2026-04-25 20:14 | 36.85737 | -76.15923 | 2101 ft | 144 kts | 228° |
| 2026-04-25 20:14 | 36.85115 | -76.16929 | 2100 ft | 142 kts | 227° |
| 2026-04-25 20:14 | 36.84503 | -76.17927 | 2106 ft | 144 kts | 227° |
| 2026-04-25 20:14 | 36.83888 | -76.18921 | 2111 ft | 149 kts | 226° |
| 2026-04-25 20:15 | 36.83282 | -76.19905 | 2103 ft | 143 kts | 227° |
| 2026-04-25 20:15 | 36.82656 | -76.20917 | 2108 ft | 146 kts | 227° |
| 2026-04-25 20:15 | 36.82053 | -76.21901 | 2097 ft | 143 kts | 229° |
| 2026-04-25 20:15 | 36.81425 | -76.22914 | 2058 ft | 146 kts | 229° |
| 2026-04-25 20:16 | 36.80813 | -76.23911 | 1981 ft | 144 kts | 229° |
| 2026-04-25 20:16 | 36.80277 | -76.25002 | 1896 ft | 151 kts | 252° |
| 2026-04-25 20:16 | 36.80380 | -76.26322 | 1720 ft | 161 kts | 294° |
| 2026-04-25 20:16 | 36.81213 | -76.27260 | 1686 ft | 167 kts | 342° |
| 2026-04-25 20:17 | 36.82253 | -76.27045 | 1598 ft | 157 kts | 46° |
| 2026-04-25 20:17 | 36.83052 | -76.26180 | 1613 ft | 156 kts | 44° |
| 2026-04-25 20:17 | 36.83903 | -76.25354 | 1607 ft | 153 kts | 41° |
| 2026-04-25 20:17 | 36.84765 | -76.24530 | 1600 ft | 154 kts | 42° |
| 2026-04-25 20:18 | 36.85618 | -76.23707 | 1589 ft | 155 kts | 43° |
| 2026-04-25 20:18 | 36.86475 | -76.22938 | 1000 ft | 153 kts | 41° |
| 2026-04-25 20:18 | 36.87268 | -76.22140 | 576 ft | 138 kts | 44° |
| 2026-04-25 20:18 | 36.87983 | -76.21365 | 361 ft | 133 kts | 38° |
| 2026-04-25 20:19 | 36.88693 | -76.20692 | 175 ft | 128 kts | 36° |
| 2026-04-25 20:19 | 36.89411 | -76.20018 | 42 ft | 117 kts | 37° |
| 2026-04-25 20:19 | 36.90029 | -76.19438 | 38 ft | 92 kts | 37° |
| 2026-04-25 20:19 | 36.90375 | -76.19107 | 35 ft | 39 kts | 37° |
| 2026-04-25 20:20 | 36.90498 | -76.18998 | 36 ft | 15 kts | 21° |
| 2026-04-25 20:20 | 36.90538 | -76.18995 | 36 ft | 0 kts | 346° |
| 2026-04-25 20:20 | 36.90563 | -76.19012 | 35 ft | 6 kts | 322° |
| 2026-04-25 20:20 | 36.90588 | -76.19045 | 34 ft | 4 kts | 309° |
| 2026-04-25 20:21 | 36.90591 | -76.19050 | 34 ft | 0 kts | 309° |
| 2026-04-25 20:23 | 36.90593 | -76.19053 | 34 ft | 3 kts | 308° |
| 2026-04-25 20:23 | 36.90606 | -76.19134 | 32 ft | 11 kts | 259° |
| 2026-04-25 20:23 | 36.90575 | -76.19181 | 31 ft | 6 kts | 212° |
| 2026-04-25 20:24 | 36.90542 | -76.19206 | 32 ft | 6 kts | 213° |
| 2026-04-25 20:24 | 36.90480 | -76.19262 | 34 ft | 11 kts | 217° |
| 2026-04-25 20:24 | 36.90426 | -76.19312 | 36 ft | 14 kts | 216° |
| 2026-04-25 20:24 | 36.90312 | -76.19422 | 36 ft | 27 kts | 216° |
| 2026-04-25 20:25 | 36.90160 | -76.19537 | 38 ft | 24 kts | 208° |
| 2026-04-25 20:25 | 36.90026 | -76.19658 | 34 ft | 22 kts | 218° |
| 2026-04-25 20:25 | 36.89927 | -76.19754 | 36 ft | 13 kts | 218° |
| 2026-04-25 20:25 | 36.89898 | -76.19797 | 34 ft | 3 kts | 213° |
| 2026-04-25 20:26 | 36.89856 | -76.19823 | 35 ft | 9 kts | 213° |
| 2026-04-25 20:26 | 36.89811 | -76.19863 | 34 ft | 8 kts | 217° |
| 2026-04-25 20:26 | 36.89765 | -76.19909 | 37 ft | 11 kts | 221° |
| 2026-04-25 20:26 | 36.89735 | -76.19964 | 36 ft | 5 kts | 259° |
| 2026-04-25 20:27 | 36.89739 | -76.19995 | 38 ft | 7 kts | 288° |
| 2026-04-25 20:27 | 36.89769 | -76.20082 | 37 ft | 11 kts | 293° |
| 2026-04-25 20:27 | 36.89780 | -76.20154 | 36 ft | 5 kts | 249° |
| 2026-04-25 20:27 | 36.89771 | -76.20168 | 35 ft | 1 kts | 232° |
| 2026-04-25 20:28 | 36.89760 | -76.20190 | 34 ft | 6 kts | 239° |
| 2026-04-25 20:28 | 36.89738 | -76.20221 | 36 ft | 0 kts | 224° |